createdAt,value
2022-09-07T00:00:39.587Z,19.63
2022-09-07T00:01:39.569Z,19.64
2022-09-07T00:02:42.506Z,19.58
2022-09-07T00:03:39.509Z,19.62
2022-09-07T00:04:39.555Z,19.63
2022-09-07T00:05:39.490Z,19.58
2022-09-07T00:06:39.488Z,19.56
2022-09-07T00:07:39.438Z,19.64
2022-09-07T00:08:39.416Z,19.55
2022-09-07T00:09:39.424Z,19.48
2022-09-07T00:10:39.391Z,19.51
2022-09-07T00:11:39.363Z,19.51
2022-09-07T00:12:39.349Z,19.39
2022-09-07T00:13:39.341Z,19.41
2022-09-07T00:14:39.347Z,19.48
2022-09-07T00:15:39.282Z,19.41
2022-09-07T00:16:39.324Z,19.47
2022-09-07T00:17:39.244Z,19.48
2022-09-07T00:18:42.477Z,19.44
2022-09-07T00:19:39.200Z,19.48
2022-09-07T00:20:39.190Z,19.47
2022-09-07T00:21:39.160Z,19.39
2022-09-07T00:22:39.142Z,19.37
2022-09-07T00:23:39.123Z,19.37
2022-09-07T00:24:39.116Z,19.30
2022-09-07T00:25:39.088Z,19.37
2022-09-07T00:26:39.071Z,19.33
2022-09-07T00:27:39.046Z,19.34
2022-09-07T00:28:39.052Z,19.39
2022-09-07T00:29:39.005Z,19.27
2022-09-07T00:30:38.987Z,19.37
2022-09-07T00:31:39.019Z,19.24
2022-09-07T00:32:38.985Z,19.36
2022-09-07T00:33:38.928Z,19.26
2022-09-07T00:34:38.912Z,19.34
2022-09-07T00:35:38.911Z,19.39
2022-09-07T00:36:38.892Z,19.33
2022-09-07T00:37:38.857Z,19.29
2022-09-07T00:38:38.832Z,19.31
2022-09-07T00:39:38.900Z,19.33
2022-09-07T00:40:38.814Z,19.29
2022-09-07T00:41:38.775Z,19.22
2022-09-07T00:42:38.754Z,19.24
2022-09-07T00:43:38.744Z,19.26
2022-09-07T00:44:38.736Z,19.27
2022-09-07T00:45:38.702Z,19.21
2022-09-07T00:46:38.720Z,19.24
2022-09-07T00:47:38.663Z,19.16
2022-09-07T00:48:38.719Z,19.21
2022-09-07T00:49:38.631Z,19.21
2022-09-07T00:50:38.606Z,19.14
2022-09-07T00:51:38.677Z,19.19
2022-09-07T00:52:38.574Z,19.18
2022-09-07T00:53:38.549Z,19.21
2022-09-07T00:54:38.533Z,19.18
2022-09-07T00:55:38.519Z,19.26
2022-09-07T00:56:38.505Z,19.18
2022-09-07T00:57:40.989Z,19.18
2022-09-07T00:58:38.450Z,19.19
2022-09-07T00:59:38.426Z,19.21
2022-09-07T01:00:38.441Z,19.26
2022-09-07T01:01:39.091Z,19.22
2022-09-07T01:02:38.482Z,19.16
2022-09-07T01:03:38.355Z,19.14
2022-09-07T01:04:38.360Z,19.21
2022-09-07T01:05:38.997Z,19.21
2022-09-07T01:06:38.293Z,19.14
2022-09-07T01:07:38.274Z,19.19
2022-09-07T01:08:38.270Z,19.15
2022-09-07T01:09:38.284Z,19.21
2022-09-07T01:10:38.215Z,19.19
2022-09-07T01:11:38.218Z,19.19
2022-09-07T01:12:38.205Z,19.24
2022-09-07T01:13:38.153Z,19.19
2022-09-07T01:14:38.135Z,19.12
2022-09-07T01:15:38.196Z,19.15
2022-09-07T01:16:38.102Z,19.18
2022-09-07T01:17:38.076Z,19.21
2022-09-07T01:18:38.063Z,19.22
2022-09-07T01:19:38.053Z,19.16
2022-09-07T01:20:38.017Z,19.21
2022-09-07T01:21:38.005Z,19.18
2022-09-07T01:22:37.982Z,19.26
2022-09-07T01:23:37.977Z,19.22
2022-09-07T01:24:37.942Z,19.15
2022-09-07T01:25:37.921Z,19.19
2022-09-07T01:26:37.910Z,19.18
2022-09-07T01:27:37.923Z,19.16
2022-09-07T01:28:37.868Z,19.27
2022-09-07T01:29:37.844Z,19.18
2022-09-07T01:30:37.830Z,19.24
2022-09-07T01:31:37.875Z,19.22
2022-09-07T01:32:37.794Z,19.26
2022-09-07T01:33:37.766Z,19.19
2022-09-07T01:34:37.763Z,19.26
2022-09-07T01:35:37.752Z,19.18
2022-09-07T01:36:37.713Z,19.24
2022-09-07T01:37:38.423Z,19.18
2022-09-07T01:38:37.683Z,19.21
2022-09-07T01:39:37.771Z,19.19
2022-09-07T01:40:38.520Z,19.21
2022-09-07T01:41:37.689Z,19.15
2022-09-07T01:42:37.695Z,19.15
2022-09-07T01:43:37.603Z,19.16
2022-09-07T01:44:37.565Z,19.21
2022-09-07T01:45:37.537Z,19.22
2022-09-07T01:46:37.634Z,19.16
2022-09-07T01:47:37.521Z,19.14
2022-09-07T01:48:37.490Z,19.07
2022-09-07T01:49:37.460Z,19.18
2022-09-07T01:50:37.448Z,19.12
2022-09-07T01:51:37.452Z,19.09
2022-09-07T01:52:38.003Z,19.08
2022-09-07T01:53:37.381Z,19.00
2022-09-07T01:54:37.377Z,19.02
2022-09-07T01:55:37.367Z,19.00
2022-09-07T01:56:37.333Z,18.93
2022-09-07T01:57:37.300Z,18.95
2022-09-07T01:58:37.286Z,18.93
2022-09-07T01:59:37.297Z,18.93
2022-09-07T02:00:37.310Z,18.89
2022-09-07T02:01:37.294Z,18.89
2022-09-07T02:02:37.287Z,18.88
2022-09-07T02:03:37.182Z,18.89
2022-09-07T02:04:37.168Z,18.84
2022-09-07T02:05:37.146Z,18.81
2022-09-07T02:06:37.143Z,18.86
2022-09-07T02:07:37.103Z,18.80
2022-09-07T02:08:37.087Z,18.83
2022-09-07T02:09:37.072Z,18.71
2022-09-07T02:10:37.070Z,18.78
2022-09-07T02:11:37.032Z,18.75
2022-09-07T02:12:37.011Z,18.68
2022-09-07T02:13:37.005Z,18.74
2022-09-07T02:14:37.001Z,18.68
2022-09-07T02:15:37.001Z,18.66
2022-09-07T02:16:36.929Z,18.60
2022-09-07T02:17:36.919Z,18.68
2022-09-07T02:18:36.918Z,18.53
2022-09-07T02:19:37.524Z,18.55
2022-09-07T02:20:36.847Z,18.53
2022-09-07T02:21:36.847Z,18.55
2022-09-07T02:22:36.846Z,18.60
2022-09-07T02:23:37.521Z,18.60
2022-09-07T02:24:36.772Z,18.59
2022-09-07T02:25:36.753Z,18.58
2022-09-07T02:26:36.773Z,18.58
2022-09-07T02:27:36.771Z,18.59
2022-09-07T02:28:36.691Z,18.59
2022-09-07T02:29:36.681Z,18.63
2022-09-07T02:30:36.677Z,18.52
2022-09-07T02:31:36.636Z,18.55
2022-09-07T02:32:36.623Z,18.53
2022-09-07T02:33:36.612Z,18.53
2022-09-07T02:34:36.604Z,18.55
2022-09-07T02:35:36.558Z,18.45
2022-09-07T02:36:36.537Z,18.49
2022-09-07T02:37:36.537Z,18.44
2022-09-07T02:38:36.496Z,18.47
2022-09-07T02:39:36.531Z,18.44
2022-09-07T02:40:36.466Z,18.44
2022-09-07T02:41:36.463Z,18.41
2022-09-07T02:42:36.423Z,18.43
2022-09-07T02:43:36.394Z,18.38
2022-09-07T02:44:36.384Z,18.38
2022-09-07T02:45:36.389Z,18.40
2022-09-07T02:46:36.410Z,18.40
2022-09-07T02:47:36.318Z,18.31
2022-09-07T02:48:36.312Z,18.34
2022-09-07T02:49:36.291Z,18.35
2022-09-07T02:50:37.042Z,18.31
2022-09-07T02:51:36.233Z,18.35
2022-09-07T02:52:36.233Z,18.37
2022-09-07T02:53:36.226Z,18.26
2022-09-07T02:54:36.198Z,18.26
2022-09-07T02:55:36.161Z,18.26
2022-09-07T02:56:36.139Z,18.25
2022-09-07T02:57:36.161Z,18.25
2022-09-07T02:58:36.115Z,18.19
2022-09-07T02:59:36.126Z,18.28
2022-09-07T03:00:36.110Z,18.22
2022-09-07T03:01:36.064Z,18.15
2022-09-07T03:02:36.063Z,18.23
2022-09-07T03:03:36.005Z,18.10
2022-09-07T03:04:35.986Z,18.19
2022-09-07T03:05:35.962Z,18.16
2022-09-07T03:06:35.940Z,18.18
2022-09-07T03:07:37.003Z,18.20
2022-09-07T03:08:35.922Z,18.18
2022-09-07T03:09:36.540Z,18.25
2022-09-07T03:10:35.859Z,18.16
2022-09-07T03:11:35.850Z,18.23
2022-09-07T03:12:35.837Z,18.19
2022-09-07T03:13:36.557Z,18.26
2022-09-07T03:14:35.780Z,18.25
2022-09-07T03:15:35.820Z,18.10
2022-09-07T03:16:35.757Z,18.19
2022-09-07T03:17:35.757Z,18.23
2022-09-07T03:18:35.702Z,18.20
2022-09-07T03:19:35.689Z,18.16
2022-09-07T03:20:35.675Z,18.20
2022-09-07T03:21:35.656Z,18.22
2022-09-07T03:22:35.619Z,18.22
2022-09-07T03:23:35.615Z,18.18
2022-09-07T03:24:35.574Z,18.22
2022-09-07T03:25:35.555Z,18.22
2022-09-07T03:26:35.540Z,18.16
2022-09-07T03:27:35.548Z,18.23
2022-09-07T03:28:35.499Z,18.19
2022-09-07T03:29:39.100Z,18.22
2022-09-07T03:30:35.509Z,18.16
2022-09-07T03:31:35.463Z,18.19
2022-09-07T03:32:35.424Z,18.20
2022-09-07T03:33:35.396Z,18.22
2022-09-07T03:34:35.403Z,18.20
2022-09-07T03:35:35.386Z,18.22
2022-09-07T03:36:35.384Z,18.16
2022-09-07T03:37:35.316Z,18.13
2022-09-07T03:38:35.301Z,18.13
2022-09-07T03:39:35.342Z,18.16
2022-09-07T03:40:35.252Z,18.04
2022-09-07T03:41:35.237Z,18.20
2022-09-07T03:42:35.235Z,18.18
2022-09-07T03:43:35.268Z,18.03
2022-09-07T03:44:36.077Z,18.07
2022-09-07T03:45:35.156Z,18.01
2022-09-07T03:46:35.143Z,18.04
2022-09-07T03:47:35.116Z,18.08
2022-09-07T03:48:35.096Z,18.07
2022-09-07T03:49:35.083Z,18.07
2022-09-07T03:50:35.079Z,18.05
2022-09-07T03:51:35.038Z,18.05
2022-09-07T03:52:35.018Z,18.03
2022-09-07T03:53:35.007Z,18.05
2022-09-07T03:54:39.009Z,18.08
2022-09-07T03:55:35.547Z,18.13
2022-09-07T03:56:34.935Z,18.13
2022-09-07T03:57:34.945Z,18.08
2022-09-07T03:58:34.915Z,18.16
2022-09-07T03:59:34.891Z,18.07
2022-09-07T04:00:34.858Z,18.07
2022-09-07T04:01:34.936Z,17.98
2022-09-07T04:02:34.893Z,18.10
2022-09-07T04:03:34.793Z,18.00
2022-09-07T04:04:34.781Z,18.03
2022-09-07T04:05:34.774Z,18.05
2022-09-07T04:06:34.733Z,18.10
2022-09-07T04:07:34.709Z,18.11
2022-09-07T04:08:34.699Z,18.07
2022-09-07T04:09:34.673Z,18.07
2022-09-07T04:10:35.552Z,18.03
2022-09-07T04:11:34.634Z,18.07
2022-09-07T04:12:34.621Z,18.08
2022-09-07T04:13:34.612Z,18.03
2022-09-07T04:14:35.560Z,18.10
2022-09-07T04:15:34.553Z,18.01
2022-09-07T04:16:34.657Z,18.05
2022-09-07T04:17:34.589Z,18.13
2022-09-07T04:18:34.510Z,18.04
2022-09-07T04:19:34.475Z,18.11
2022-09-07T04:20:34.479Z,18.03
2022-09-07T04:21:34.427Z,18.05
2022-09-07T04:22:34.425Z,18.13
2022-09-07T04:23:34.396Z,18.10
2022-09-07T04:24:34.384Z,18.11
2022-09-07T04:25:34.347Z,18.11
2022-09-07T04:26:34.329Z,18.13
2022-09-07T04:27:34.313Z,18.10
2022-09-07T04:28:34.310Z,18.07
2022-09-07T04:29:34.274Z,18.11
2022-09-07T04:30:34.267Z,18.01
2022-09-07T04:31:34.238Z,18.00
2022-09-07T04:32:34.261Z,18.10
2022-09-07T04:33:34.196Z,18.08
2022-09-07T04:34:34.173Z,18.10
2022-09-07T04:35:34.167Z,18.01
2022-09-07T04:36:34.160Z,18.04
2022-09-07T04:37:34.121Z,18.00
2022-09-07T04:38:34.090Z,18.03
2022-09-07T04:39:35.057Z,18.16
2022-09-07T04:40:34.079Z,18.05
2022-09-07T04:41:34.028Z,18.03
2022-09-07T04:42:34.011Z,18.05
2022-09-07T04:43:34.001Z,18.03
2022-09-07T04:44:33.966Z,18.13
2022-09-07T04:45:34.040Z,18.15
2022-09-07T04:46:33.965Z,18.18
2022-09-07T04:47:33.931Z,18.19
2022-09-07T04:48:34.032Z,18.23
2022-09-07T04:49:33.869Z,18.26
2022-09-07T04:50:33.856Z,18.20
2022-09-07T04:51:33.854Z,18.22
2022-09-07T04:52:33.812Z,18.20
2022-09-07T04:53:33.784Z,18.22
2022-09-07T04:54:33.783Z,18.20
2022-09-07T04:55:33.773Z,18.25
2022-09-07T04:56:34.606Z,18.28
2022-09-07T04:57:33.711Z,18.26
2022-09-07T04:58:33.690Z,18.25
2022-09-07T04:59:33.696Z,18.23
2022-09-07T05:00:33.648Z,18.26
2022-09-07T05:01:33.677Z,18.29
2022-09-07T05:02:33.707Z,18.31
2022-09-07T05:03:34.500Z,18.31
2022-09-07T05:04:33.566Z,18.31
2022-09-07T05:05:33.549Z,18.28
2022-09-07T05:06:33.534Z,18.34
2022-09-07T05:07:33.509Z,18.35
2022-09-07T05:08:33.488Z,18.40
2022-09-07T05:09:33.471Z,18.44
2022-09-07T05:10:33.472Z,18.45
2022-09-07T05:11:33.431Z,18.49
2022-09-07T05:12:33.403Z,18.55
2022-09-07T05:13:33.395Z,18.50
2022-09-07T05:14:33.393Z,18.49
2022-09-07T05:15:34.121Z,18.56
2022-09-07T05:16:33.369Z,18.59
2022-09-07T05:17:33.321Z,18.60
2022-09-07T05:18:33.329Z,18.59
2022-09-07T05:19:33.279Z,18.58
2022-09-07T05:20:33.257Z,18.55
2022-09-07T05:21:33.248Z,18.53
2022-09-07T05:22:33.244Z,18.65
2022-09-07T05:23:33.210Z,18.71
2022-09-07T05:24:33.200Z,18.62
2022-09-07T05:25:33.174Z,18.74
2022-09-07T05:26:33.149Z,18.78
2022-09-07T05:27:33.156Z,18.73
2022-09-07T05:28:33.233Z,18.71
2022-09-07T05:31:33.036Z,18.74
2022-09-07T05:32:33.019Z,18.83
2022-09-07T05:34:33.246Z,18.86
2022-09-07T05:35:32.951Z,18.86
2022-09-07T05:36:32.937Z,18.98
2022-09-07T05:37:32.922Z,18.95
2022-09-07T05:38:32.897Z,19.04
2022-09-07T05:39:32.922Z,19.11
2022-09-07T05:40:36.096Z,19.16
2022-09-07T05:41:32.861Z,19.09
2022-09-07T05:42:32.817Z,19.12
2022-09-07T05:43:32.806Z,19.12
2022-09-07T05:44:48.099Z,19.19
2022-09-07T05:45:32.795Z,19.16
2022-09-07T05:46:32.748Z,19.21
2022-09-07T05:47:32.715Z,19.19
2022-09-07T05:48:32.716Z,19.27
2022-09-07T05:49:32.689Z,19.30
2022-09-07T05:50:33.592Z,19.36
2022-09-07T05:51:32.640Z,19.34
2022-09-07T05:52:32.639Z,19.36
2022-09-07T05:53:32.616Z,19.30
2022-09-07T05:54:32.632Z,19.33
2022-09-07T05:55:32.564Z,19.30
2022-09-07T05:56:32.556Z,19.30
2022-09-07T05:57:32.542Z,19.37
2022-09-07T05:58:32.515Z,19.40
2022-09-07T05:59:32.485Z,19.40
2022-09-07T06:00:32.486Z,19.41
2022-09-07T06:01:32.483Z,19.45
2022-09-07T06:02:35.420Z,19.44
2022-09-07T06:03:32.460Z,19.54
2022-09-07T06:04:32.410Z,19.45
2022-09-07T06:05:32.404Z,19.49
2022-09-07T06:06:32.346Z,19.66
2022-09-07T06:07:32.328Z,19.58
2022-09-07T06:08:32.408Z,19.55
2022-09-07T06:09:32.291Z,19.70
2022-09-07T06:10:47.636Z,19.74
2022-09-07T06:11:32.257Z,19.71
2022-09-07T06:12:32.259Z,19.76
2022-09-07T06:13:32.398Z,19.71
2022-09-07T06:14:32.194Z,19.76
2022-09-07T06:15:32.175Z,19.71
2022-09-07T06:16:32.263Z,19.73
2022-09-07T06:17:32.171Z,19.82
2022-09-07T06:18:32.115Z,19.82
2022-09-07T06:19:32.102Z,19.82
2022-09-07T06:20:32.090Z,19.76
2022-09-07T06:21:32.105Z,19.81
2022-09-07T06:22:32.047Z,19.77
2022-09-07T06:23:32.246Z,19.88
2022-09-07T06:24:32.032Z,19.85
2022-09-07T06:25:32.027Z,19.74
2022-09-07T06:26:31.968Z,19.89
2022-09-07T06:27:31.951Z,19.86
2022-09-07T06:28:31.952Z,19.91
2022-09-07T06:29:31.913Z,19.94
2022-09-07T06:30:31.889Z,19.96
2022-09-07T06:31:31.984Z,20.03
2022-09-07T06:32:47.345Z,20.02
2022-09-07T06:33:31.934Z,20.00
2022-09-07T06:34:31.815Z,20.16
2022-09-07T06:35:31.803Z,20.13
2022-09-07T06:36:31.805Z,20.22
2022-09-07T06:37:31.758Z,20.31
2022-09-07T06:38:32.055Z,20.36
2022-09-07T06:39:31.761Z,20.36
2022-09-07T06:40:31.711Z,20.47
2022-09-07T06:42:31.662Z,20.47
2022-09-07T06:43:31.811Z,20.56
2022-09-07T06:44:31.655Z,20.50
2022-09-07T06:45:31.660Z,20.58
2022-09-07T06:47:31.577Z,20.66
2022-09-07T06:48:31.773Z,20.66
2022-09-07T06:49:31.537Z,20.69
2022-09-07T06:50:31.514Z,20.72
2022-09-07T06:51:31.499Z,20.77
2022-09-07T06:55:31.427Z,20.87
2022-09-07T06:56:31.436Z,21.00
2022-09-07T06:57:31.385Z,20.96
2022-09-07T06:58:31.425Z,21.03
2022-09-07T06:59:31.349Z,21.07
2022-09-07T07:00:31.367Z,21.20
2022-09-07T07:01:31.375Z,21.12
2022-09-07T07:02:31.297Z,21.20
2022-09-07T07:03:31.319Z,21.25
2022-09-07T07:04:32.392Z,21.29
2022-09-07T07:05:31.277Z,21.37
2022-09-07T07:06:31.239Z,21.27
2022-09-07T07:07:31.202Z,21.40
2022-09-07T07:08:31.372Z,21.46
2022-09-07T07:09:32.131Z,21.45
2022-09-07T07:10:32.148Z,21.45
2022-09-07T07:11:31.136Z,21.48
2022-09-07T07:12:52.134Z,21.60
2022-09-07T07:13:31.123Z,21.60
2022-09-07T07:14:34.395Z,21.61
2022-09-07T07:15:31.063Z,21.67
2022-09-07T07:16:31.177Z,21.70
2022-09-07T07:17:31.039Z,21.72
2022-09-07T07:18:31.052Z,21.73
2022-09-07T07:19:30.996Z,21.76
2022-09-07T07:20:30.979Z,21.69
2022-09-07T07:21:42.914Z,21.73
2022-09-07T07:22:47.174Z,21.76
2022-09-07T07:23:30.961Z,21.70
2022-09-07T07:24:30.903Z,21.75
2022-09-07T07:25:30.905Z,21.77
2022-09-07T07:26:30.864Z,21.89
2022-09-07T07:27:30.850Z,21.89
2022-09-07T07:29:30.821Z,22.04
2022-09-07T07:30:30.789Z,22.11
2022-09-07T07:31:30.834Z,22.17
2022-09-07T07:32:30.757Z,22.28
2022-09-07T07:33:31.049Z,22.33
2022-09-07T07:34:30.828Z,22.50
2022-09-07T07:35:31.637Z,22.50
2022-09-07T07:36:30.689Z,22.55
2022-09-07T07:37:30.692Z,22.68
2022-09-07T07:40:31.862Z,22.63
2022-09-07T07:42:30.607Z,22.76
2022-09-07T07:43:30.760Z,22.90
2022-09-07T07:44:30.558Z,22.91
2022-09-07T07:46:30.632Z,23.06
2022-09-07T07:47:30.512Z,23.08
2022-09-07T07:48:30.521Z,23.10
2022-09-07T07:49:30.464Z,23.20
2022-09-07T07:50:32.071Z,23.20
2022-09-07T07:51:30.530Z,23.15
2022-09-07T07:53:45.691Z,23.18
2022-09-07T07:54:30.402Z,23.24
2022-09-07T07:55:45.851Z,23.36
2022-09-07T07:56:30.395Z,23.36
2022-09-07T07:57:30.339Z,23.34
2022-09-07T07:58:30.316Z,23.36
2022-09-07T07:59:30.317Z,23.40
2022-09-07T08:00:50.840Z,23.25
2022-09-07T08:01:30.315Z,23.28
2022-09-07T08:02:30.365Z,23.27
2022-09-07T08:03:30.330Z,23.18
2022-09-07T08:04:30.237Z,23.23
2022-09-07T08:05:31.177Z,23.20
2022-09-07T08:06:30.189Z,23.18
2022-09-07T08:07:30.187Z,23.23
2022-09-07T08:08:30.163Z,23.15
2022-09-07T08:09:30.179Z,23.18
2022-09-07T08:10:30.113Z,23.21
2022-09-07T08:11:30.097Z,23.18
2022-09-07T08:12:32.662Z,23.24
2022-09-07T08:13:30.105Z,23.41
2022-09-07T08:14:30.037Z,23.36
2022-09-07T08:15:30.024Z,23.39
2022-09-07T08:16:30.081Z,23.36
2022-09-07T08:17:30.017Z,23.37
2022-09-07T08:18:30.013Z,23.34
2022-09-07T08:19:29.959Z,23.32
2022-09-07T08:20:29.950Z,23.28
2022-09-07T08:21:29.953Z,23.24
2022-09-07T08:22:34.662Z,23.31
2022-09-07T08:23:29.949Z,23.17
2022-09-07T08:24:29.877Z,23.18
2022-09-07T08:25:30.580Z,23.23
2022-09-07T08:26:29.838Z,23.20
2022-09-07T08:27:29.817Z,23.20
2022-09-07T08:28:29.805Z,23.28
2022-09-07T08:29:33.539Z,23.31
2022-09-07T08:30:29.788Z,23.23
2022-09-07T08:31:29.805Z,23.28
2022-09-07T08:32:29.743Z,23.40
2022-09-07T08:33:29.759Z,23.34
2022-09-07T08:34:29.739Z,23.36
2022-09-07T08:35:30.676Z,23.48
2022-09-07T08:36:29.695Z,23.48
2022-09-07T08:37:29.659Z,23.50
2022-09-07T08:38:29.792Z,23.56
2022-09-07T08:39:30.207Z,23.61
2022-09-07T08:40:29.682Z,23.61
2022-09-07T08:41:29.766Z,23.69
2022-09-07T08:42:29.705Z,23.66
2022-09-07T08:43:29.591Z,23.74
2022-09-07T08:44:29.554Z,23.78
2022-09-07T08:45:29.520Z,23.69
2022-09-07T08:46:29.575Z,23.80
2022-09-07T08:47:29.512Z,23.69
2022-09-07T08:48:29.475Z,23.66
2022-09-07T08:49:29.452Z,23.63
2022-09-07T08:50:29.443Z,23.63
2022-09-07T08:51:29.455Z,23.58
2022-09-07T08:52:29.397Z,23.59
2022-09-07T08:53:29.450Z,23.63
2022-09-07T08:54:29.377Z,23.55
2022-09-07T08:55:29.377Z,23.54
2022-09-07T08:56:33.634Z,23.58
2022-09-07T08:57:30.184Z,23.48
2022-09-07T08:58:48.085Z,23.44
2022-09-07T08:59:29.300Z,23.39
2022-09-07T09:00:29.293Z,23.34
2022-09-07T09:01:30.949Z,23.39
2022-09-07T09:02:32.656Z,23.34
2022-09-07T09:03:30.155Z,23.37
2022-09-07T09:04:29.899Z,23.37
2022-09-07T09:05:29.350Z,23.39
2022-09-07T09:06:29.242Z,23.34
2022-09-07T09:07:29.148Z,23.37
2022-09-07T09:08:29.145Z,23.34
2022-09-07T09:09:29.684Z,23.37
2022-09-07T09:10:29.134Z,23.37
2022-09-07T09:11:29.104Z,23.36
2022-09-07T09:12:29.083Z,23.25
2022-09-07T09:13:29.134Z,23.20
2022-09-07T09:15:29.014Z,23.24
2022-09-07T09:16:29.088Z,23.21
2022-09-07T09:17:28.996Z,23.24
2022-09-07T09:18:28.979Z,23.23
2022-09-07T09:19:28.947Z,23.23
2022-09-07T09:20:28.936Z,23.18
2022-09-07T09:21:28.951Z,23.17
2022-09-07T09:22:28.887Z,23.20
2022-09-07T09:23:28.927Z,23.03
2022-09-07T09:24:28.872Z,23.20
2022-09-07T09:25:28.857Z,23.13
2022-09-07T09:26:28.845Z,23.18
2022-09-07T09:27:29.699Z,23.20
2022-09-07T09:28:31.779Z,23.24
2022-09-07T09:29:28.805Z,23.39
2022-09-07T09:30:28.767Z,23.44
2022-09-07T09:31:28.870Z,23.61
2022-09-07T09:32:28.718Z,23.65
2022-09-07T09:33:28.705Z,23.66
2022-09-07T09:34:33.393Z,23.71
2022-09-07T09:35:28.689Z,23.80
2022-09-07T09:36:28.654Z,23.86
2022-09-07T09:38:28.638Z,23.96
2022-09-07T09:39:28.725Z,24.03
2022-09-07T09:40:28.713Z,24.10
2022-09-07T09:41:28.590Z,24.08
2022-09-07T09:42:28.578Z,24.02
2022-09-07T09:43:28.564Z,24.08
2022-09-07T09:44:28.519Z,24.21
2022-09-07T09:45:28.549Z,24.13
2022-09-07T09:46:28.551Z,24.32
2022-09-07T09:47:30.189Z,24.35
2022-09-07T09:48:28.496Z,24.39
2022-09-07T09:49:29.255Z,24.47
2022-09-07T09:52:30.433Z,24.65
2022-09-07T09:53:28.427Z,24.77
2022-09-07T09:54:28.358Z,24.80
2022-09-07T09:55:35.790Z,24.85
2022-09-07T09:56:28.352Z,24.86
2022-09-07T09:57:28.331Z,24.96
2022-09-07T10:00:29.998Z,24.95
2022-09-07T10:01:29.083Z,24.99
2022-09-07T10:04:28.199Z,25.07
2022-09-07T10:05:28.207Z,24.98
2022-09-07T10:06:28.206Z,25.03
2022-09-07T10:07:28.162Z,24.78
2022-09-07T10:08:28.227Z,24.76
2022-09-07T10:09:28.135Z,24.78
2022-09-07T10:10:28.128Z,24.77
2022-09-07T10:12:05.044Z,24.76
2022-09-07T10:12:28.074Z,24.81
2022-09-07T10:13:28.061Z,24.96
2022-09-07T10:14:28.063Z,24.96
2022-09-07T10:15:28.048Z,25.01
2022-09-07T10:16:28.091Z,25.01
2022-09-07T10:17:28.010Z,25.06
2022-09-07T10:18:28.076Z,25.10
2022-09-07T10:19:27.968Z,25.21
2022-09-07T10:20:27.948Z,25.28
2022-09-07T10:21:27.925Z,25.21
2022-09-07T10:22:27.911Z,25.11
2022-09-07T10:23:27.915Z,25.25
2022-09-07T10:24:27.899Z,25.32
2022-09-07T10:25:28.746Z,25.23
2022-09-07T10:26:27.923Z,25.41
2022-09-07T10:27:27.842Z,25.40
2022-09-07T10:29:06.364Z,25.32
2022-09-07T10:30:27.844Z,25.43
2022-09-07T10:31:27.924Z,25.38
2022-09-07T10:32:27.810Z,25.33
2022-09-07T10:33:27.779Z,25.38
2022-09-07T10:34:28.337Z,25.25
2022-09-07T10:35:27.787Z,25.21
2022-09-07T10:36:48.727Z,25.23
2022-09-07T10:37:27.716Z,25.25
2022-09-07T10:38:27.725Z,25.21
2022-09-07T10:39:27.746Z,25.07
2022-09-07T10:40:27.660Z,25.06
2022-09-07T10:41:27.663Z,24.99
2022-09-07T10:43:27.631Z,25.01
2022-09-07T10:44:27.595Z,25.10
2022-09-07T10:45:27.643Z,25.04
2022-09-07T10:47:27.614Z,25.11
2022-09-07T10:48:49.371Z,25.13
2022-09-07T10:49:27.528Z,25.10
2022-09-07T10:50:27.512Z,25.07
2022-09-07T10:51:27.482Z,25.08
2022-09-07T10:52:28.358Z,25.17
2022-09-07T10:53:42.737Z,25.11
2022-09-07T10:54:48.448Z,25.23
2022-09-07T10:55:27.416Z,25.26
2022-09-07T10:56:27.408Z,25.31
2022-09-07T10:57:27.428Z,25.31
2022-09-07T10:59:01.319Z,25.31
2022-09-07T11:00:07.163Z,25.46
2022-09-07T11:00:48.376Z,25.51
2022-09-07T11:01:28.274Z,25.60
2022-09-07T11:02:27.435Z,25.73
2022-09-07T11:03:27.747Z,25.72
2022-09-07T11:04:27.377Z,25.88
2022-09-07T11:05:32.716Z,25.99
2022-09-07T11:06:48.993Z,26.00
2022-09-07T11:07:27.230Z,26.05
2022-09-07T11:08:27.235Z,26.09
2022-09-07T11:09:27.252Z,26.07
2022-09-07T11:10:27.919Z,26.07
2022-09-07T11:12:48.201Z,26.07
2022-09-07T11:13:27.214Z,26.06
2022-09-07T11:14:27.134Z,26.05
2022-09-07T11:15:27.131Z,25.95
2022-09-07T11:17:27.615Z,25.88
2022-09-07T11:18:48.149Z,25.95
2022-09-07T11:19:42.302Z,25.85
2022-09-07T11:20:27.068Z,25.83
2022-09-07T11:22:27.035Z,25.78
2022-09-07T11:23:26.986Z,25.72
2022-09-07T11:25:28.741Z,25.69
2022-09-07T11:25:30.191Z,25.70
2022-09-07T11:26:27.054Z,25.78
2022-09-07T11:27:26.968Z,25.83
2022-09-07T11:28:26.906Z,25.77
2022-09-07T11:29:30.027Z,25.81
2022-09-07T11:30:47.903Z,25.80
2022-09-07T11:31:26.933Z,25.83
2022-09-07T11:32:26.843Z,25.87
2022-09-07T11:33:27.364Z,25.85
2022-09-07T11:34:26.832Z,25.87
2022-09-07T11:35:26.808Z,25.93
2022-09-07T11:36:47.811Z,26.03
2022-09-07T11:37:26.764Z,26.07
2022-09-07T11:38:26.859Z,26.10
2022-09-07T11:39:26.804Z,26.16
2022-09-07T11:40:26.738Z,26.07
2022-09-07T11:41:26.756Z,26.07
2022-09-07T11:42:47.697Z,26.03
2022-09-07T11:43:26.667Z,26.06
2022-09-07T11:44:26.657Z,26.05
2022-09-07T11:45:26.678Z,26.02
2022-09-07T11:46:26.733Z,26.07
2022-09-07T11:47:27.394Z,26.13
2022-09-07T11:48:47.626Z,26.13
2022-09-07T11:49:26.599Z,26.22
2022-09-07T11:50:26.568Z,26.23
2022-09-07T11:51:26.561Z,26.38
2022-09-07T11:52:26.548Z,26.33
2022-09-07T11:53:26.573Z,26.26
2022-09-07T11:54:47.516Z,26.34
2022-09-07T11:55:26.485Z,26.28
2022-09-07T11:56:26.492Z,26.23
2022-09-07T11:57:26.490Z,26.16
2022-09-07T11:58:26.484Z,26.21
2022-09-07T11:59:26.466Z,26.13
2022-09-07T12:00:47.448Z,26.13
2022-09-07T12:01:26.419Z,26.23
2022-09-07T12:02:48.329Z,26.19
2022-09-07T12:03:26.449Z,26.15
2022-09-07T12:04:26.401Z,26.21
2022-09-07T12:05:26.376Z,26.09
2022-09-07T12:06:47.925Z,26.15
2022-09-07T12:07:26.306Z,26.07
2022-09-07T12:08:26.407Z,26.03
2022-09-07T12:09:26.271Z,26.10
2022-09-07T12:10:26.899Z,26.02
2022-09-07T12:11:26.847Z,26.06
2022-09-07T12:12:47.264Z,26.09
2022-09-07T12:13:26.239Z,26.07
2022-09-07T12:14:26.765Z,25.99
2022-09-07T12:15:26.215Z,25.93
2022-09-07T12:16:26.209Z,25.95
2022-09-07T12:17:26.176Z,25.80
2022-09-07T12:18:47.164Z,25.80
2022-09-07T12:19:26.890Z,25.80
2022-09-07T12:20:26.110Z,25.68
2022-09-07T12:21:26.096Z,25.59
2022-09-07T12:22:26.103Z,25.68
2022-09-07T12:23:26.071Z,25.54
2022-09-07T12:24:47.049Z,25.41
2022-09-07T12:25:26.021Z,25.48
2022-09-07T12:26:26.026Z,25.43
2022-09-07T12:27:25.990Z,25.44
2022-09-07T12:28:26.904Z,25.33
2022-09-07T12:29:25.995Z,25.36
2022-09-07T12:30:47.066Z,25.32
2022-09-07T12:31:27.362Z,25.35
2022-09-07T12:33:25.908Z,25.55
2022-09-07T12:34:25.925Z,25.53
2022-09-07T12:35:25.877Z,25.65
2022-09-07T12:36:46.892Z,25.50
2022-09-07T12:37:25.872Z,25.55
2022-09-07T12:38:25.837Z,25.58
2022-09-07T12:39:25.831Z,25.58
2022-09-07T12:40:25.862Z,25.59
2022-09-07T12:41:25.767Z,25.59
2022-09-07T12:42:46.788Z,25.60
2022-09-07T12:43:26.015Z,25.53
2022-09-07T12:44:29.251Z,25.59
2022-09-07T12:45:25.725Z,25.58
2022-09-07T12:46:25.720Z,25.53
2022-09-07T12:47:25.705Z,25.53
2022-09-07T12:48:46.689Z,25.50
2022-09-07T12:49:25.676Z,25.53
2022-09-07T12:50:25.675Z,25.38
2022-09-07T12:52:25.598Z,25.46
2022-09-07T12:53:25.604Z,25.38
2022-09-07T12:54:46.617Z,25.38
2022-09-07T12:55:28.366Z,25.38
2022-09-07T12:56:25.545Z,25.35
2022-09-07T12:57:32.679Z,25.36
2022-09-07T12:58:25.537Z,25.38
2022-09-07T12:59:25.488Z,25.41
2022-09-07T13:00:46.479Z,25.40
2022-09-07T13:01:25.545Z,25.38
2022-09-07T13:02:25.492Z,25.38
2022-09-07T13:04:25.408Z,25.33
2022-09-07T13:05:25.428Z,25.46
2022-09-07T13:07:02.284Z,25.46
2022-09-07T13:07:25.387Z,25.43
2022-09-07T13:08:25.342Z,25.38
2022-09-07T13:09:25.350Z,25.43
2022-09-07T13:10:25.334Z,25.38
2022-09-07T13:11:25.340Z,25.44
2022-09-07T13:12:53.922Z,25.44
2022-09-07T13:14:25.272Z,25.47
2022-09-07T13:15:25.238Z,25.41
2022-09-07T13:16:25.271Z,25.38
2022-09-07T13:17:26.369Z,25.53
2022-09-07T13:18:46.193Z,25.51
2022-09-07T13:19:25.168Z,25.48
2022-09-07T13:20:25.169Z,25.53
2022-09-07T13:21:25.155Z,25.55
2022-09-07T13:22:25.121Z,25.54
2022-09-07T13:23:25.122Z,25.54
2022-09-07T13:24:47.137Z,25.51